sensor_id;sensor_type;location;lat;lon;timestamp;pressure;altitude;pressure_sealevel;temperature;humidity
9899;BME280;4988;49.238;6.698;2022-08-25T00:01:35;99137.41;;;19.79;65.92
9899;BME280;4988;49.238;6.698;2022-08-25T00:04:04;99140.22;;;19.56;66.33
9899;BME280;4988;49.238;6.698;2022-08-25T00:06:30;99147.81;;;19.63;66.57
9899;BME280;4988;49.238;6.698;2022-08-25T00:08:56;99158.41;;;19.43;66.68
9899;BME280;4988;49.238;6.698;2022-08-25T00:11:26;99159.97;;;19.13;68.22
9899;BME280;4988;49.238;6.698;2022-08-25T00:13:55;99154.34;;;18.93;68.89
9899;BME280;4988;49.238;6.698;2022-08-25T00:16:21;99163.13;;;18.73;69.38
9899;BME280;4988;49.238;6.698;2022-08-25T00:18:50;99166.44;;;18.65;70.29
9899;BME280;4988;49.238;6.698;2022-08-25T00:21:17;99159.56;;;18.61;70.07
9899;BME280;4988;49.238;6.698;2022-08-25T00:23:43;99151.97;;;18.66;69.74
9899;BME280;4988;49.238;6.698;2022-08-25T00:26:10;99151.50;;;18.84;69.01
9899;BME280;4988;49.238;6.698;2022-08-25T00:28:37;99141.34;;;18.99;68.85
9899;BME280;4988;49.238;6.698;2022-08-25T00:31:03;99146.72;;;18.99;68.64
9899;BME280;4988;49.238;6.698;2022-08-25T00:33:29;99149.16;;;18.90;69.13
9899;BME280;4988;49.238;6.698;2022-08-25T00:35:58;99155.16;;;18.83;69.48
9899;BME280;4988;49.238;6.698;2022-08-25T00:38:25;99156.16;;;18.81;69.37
9899;BME280;4988;49.238;6.698;2022-08-25T00:40:51;99162.88;;;18.64;69.65
9899;BME280;4988;49.238;6.698;2022-08-25T00:43:57;99157.47;;;18.42;71.29
9899;BME280;4988;49.238;6.698;2022-08-25T00:46:36;99152.66;;;18.34;71.14
9899;BME280;4988;49.238;6.698;2022-08-25T00:49:14;99154.88;;;18.29;71.39
9899;BME280;4988;49.238;6.698;2022-08-25T00:51:51;99157.19;;;18.11;71.89
9899;BME280;4988;49.238;6.698;2022-08-25T00:54:21;99156.66;;;18.06;72.43
9899;BME280;4988;49.238;6.698;2022-08-25T00:56:49;99149.84;;;17.89;73.01
9899;BME280;4988;49.238;6.698;2022-08-25T00:59:18;99155.81;;;17.81;73.04
9899;BME280;4988;49.238;6.698;2022-08-25T01:01:44;99158.47;;;17.69;74.37
9899;BME280;4988;49.238;6.698;2022-08-25T01:04:09;99160.66;;;17.64;75.17
9899;BME280;4988;49.238;6.698;2022-08-25T01:06:38;99160.41;;;17.67;74.25
9899;BME280;4988;49.238;6.698;2022-08-25T01:09:05;99155.00;;;17.67;74.00
9899;BME280;4988;49.238;6.698;2022-08-25T01:11:32;99158.34;;;17.71;73.77
9899;BME280;4988;49.238;6.698;2022-08-25T01:13:59;99153.59;;;17.75;73.83
9899;BME280;4988;49.238;6.698;2022-08-25T01:16:27;99156.56;;;17.83;73.02
9899;BME280;4988;49.238;6.698;2022-08-25T01:18:55;99161.22;;;17.92;72.69
9899;BME280;4988;49.238;6.698;2022-08-25T01:21:23;99165.72;;;18.05;72.38
9899;BME280;4988;49.238;6.698;2022-08-25T01:23:50;99165.47;;;18.08;72.83
9899;BME280;4988;49.238;6.698;2022-08-25T01:26:20;99160.13;;;18.19;71.99
9899;BME280;4988;49.238;6.698;2022-08-25T01:28:48;99162.47;;;18.24;72.22
9899;BME280;4988;49.238;6.698;2022-08-25T01:31:33;99170.66;;;18.11;71.49
9899;BME280;4988;49.238;6.698;2022-08-25T01:33:59;99169.22;;;17.94;72.58
9899;BME280;4988;49.238;6.698;2022-08-25T01:36:27;99173.41;;;17.74;73.51
9899;BME280;4988;49.238;6.698;2022-08-25T01:38:53;99163.84;;;17.69;73.77
9899;BME280;4988;49.238;6.698;2022-08-25T01:41:34;99166.41;;;17.71;73.63
9899;BME280;4988;49.238;6.698;2022-08-25T01:44:02;99177.59;;;17.78;73.28
9899;BME280;4988;49.238;6.698;2022-08-25T01:46:30;99178.78;;;17.98;72.65
9899;BME280;4988;49.238;6.698;2022-08-25T01:48:56;99175.25;;;17.97;72.99
9899;BME280;4988;49.238;6.698;2022-08-25T01:51:23;99177.28;;;17.94;72.75
9899;BME280;4988;49.238;6.698;2022-08-25T01:53:49;99177.94;;;17.97;72.46
9899;BME280;4988;49.238;6.698;2022-08-25T01:56:16;99173.72;;;17.93;72.34
9899;BME280;4988;49.238;6.698;2022-08-25T01:58:44;99180.75;;;17.96;72.12
9899;BME280;4988;49.238;6.698;2022-08-25T02:01:13;99165.91;;;17.90;72.90
9899;BME280;4988;49.238;6.698;2022-08-25T02:03:41;99159.53;;;17.91;73.07
9899;BME280;4988;49.238;6.698;2022-08-25T02:06:07;99166.53;;;17.94;72.39
9899;BME280;4988;49.238;6.698;2022-08-25T02:08:34;99169.22;;;17.94;72.97
9899;BME280;4988;49.238;6.698;2022-08-25T02:10:59;99157.38;;;17.96;72.89
9899;BME280;4988;49.238;6.698;2022-08-25T02:13:25;99163.72;;;17.95;71.92
9899;BME280;4988;49.238;6.698;2022-08-25T02:15:53;99161.66;;;17.99;72.40
9899;BME280;4988;49.238;6.698;2022-08-25T02:18:20;99152.34;;;18.03;71.75
9899;BME280;4988;49.238;6.698;2022-08-25T02:20:46;99149.16;;;17.98;71.99
9899;BME280;4988;49.238;6.698;2022-08-25T02:23:12;99148.53;;;17.94;71.73
9899;BME280;4988;49.238;6.698;2022-08-25T02:25:39;99147.72;;;17.81;72.43
9899;BME280;4988;49.238;6.698;2022-08-25T02:28:05;99148.78;;;17.67;72.69
9899;BME280;4988;49.238;6.698;2022-08-25T02:30:32;99153.19;;;17.44;73.93
9899;BME280;4988;49.238;6.698;2022-08-25T02:32:58;99150.91;;;17.26;75.06
9899;BME280;4988;49.238;6.698;2022-08-25T02:35:23;99153.97;;;17.09;76.01
9899;BME280;4988;49.238;6.698;2022-08-25T02:37:51;99155.28;;;16.90;76.60
9899;BME280;4988;49.238;6.698;2022-08-25T02:40:16;99160.16;;;16.72;77.84
9899;BME280;4988;49.238;6.698;2022-08-25T02:42:42;99163.91;;;16.56;78.07
9899;BME280;4988;49.238;6.698;2022-08-25T02:45:08;99157.38;;;16.48;78.56
9899;BME280;4988;49.238;6.698;2022-08-25T02:47:34;99156.19;;;16.39;79.22
9899;BME280;4988;49.238;6.698;2022-08-25T02:50:02;99147.56;;;16.47;78.71
9899;BME280;4988;49.238;6.698;2022-08-25T02:52:28;99143.94;;;16.48;78.71
9899;BME280;4988;49.238;6.698;2022-08-25T02:54:53;99142.31;;;16.58;78.17
9899;BME280;4988;49.238;6.698;2022-08-25T02:57:19;99138.84;;;16.69;77.54
9899;BME280;4988;49.238;6.698;2022-08-25T02:59:45;99142.19;;;16.72;77.13
9899;BME280;4988;49.238;6.698;2022-08-25T03:02:13;99145.50;;;16.76;77.39
9899;BME280;4988;49.238;6.698;2022-08-25T03:04:39;99164.31;;;16.76;77.56
9899;BME280;4988;49.238;6.698;2022-08-25T03:07:06;99157.69;;;16.56;77.64
9899;BME280;4988;49.238;6.698;2022-08-25T03:09:31;99158.31;;;16.47;78.20
9899;BME280;4988;49.238;6.698;2022-08-25T03:11:57;99160.72;;;16.38;78.80
9899;BME280;4988;49.238;6.698;2022-08-25T03:14:22;99169.19;;;16.19;80.03
9899;BME280;4988;49.238;6.698;2022-08-25T03:16:48;99173.97;;;16.01;81.19
9899;BME280;4988;49.238;6.698;2022-08-25T03:19:14;99169.44;;;15.89;81.48
9899;BME280;4988;49.238;6.698;2022-08-25T03:21:39;99170.34;;;15.75;82.76
9899;BME280;4988;49.238;6.698;2022-08-25T03:24:05;99175.34;;;15.54;82.66
9899;BME280;4988;49.238;6.698;2022-08-25T03:26:31;99171.13;;;15.50;83.06
9899;BME280;4988;49.238;6.698;2022-08-25T03:29:15;99165.78;;;15.50;83.20
9899;BME280;4988;49.238;6.698;2022-08-25T03:31:42;99166.09;;;15.58;82.78
9899;BME280;4988;49.238;6.698;2022-08-25T03:34:09;99167.13;;;15.70;82.01
9899;BME280;4988;49.238;6.698;2022-08-25T03:36:35;99158.50;;;15.92;80.89
9899;BME280;4988;49.238;6.698;2022-08-25T03:39:00;99153.78;;;16.08;79.59
9899;BME280;4988;49.238;6.698;2022-08-25T03:41:28;99142.19;;;16.21;79.11
9899;BME280;4988;49.238;6.698;2022-08-25T03:43:54;99138.34;;;16.25;79.42
9899;BME280;4988;49.238;6.698;2022-08-25T03:46:41;99135.53;;;16.39;78.31
9899;BME280;4988;49.238;6.698;2022-08-25T03:49:09;99134.56;;;16.40;78.91
9899;BME280;4988;49.238;6.698;2022-08-25T03:51:40;99135.34;;;16.43;78.54
9899;BME280;4988;49.238;6.698;2022-08-25T03:54:06;99139.00;;;16.42;78.42
9899;BME280;4988;49.238;6.698;2022-08-25T03:56:32;99145.00;;;16.45;78.62
9899;BME280;4988;49.238;6.698;2022-08-25T03:58:57;99140.94;;;16.52;78.01
9899;BME280;4988;49.238;6.698;2022-08-25T04:01:23;99140.16;;;16.50;78.55
9899;BME280;4988;49.238;6.698;2022-08-25T04:03:49;99142.00;;;16.50;78.33
9899;BME280;4988;49.238;6.698;2022-08-25T04:06:16;99143.94;;;16.48;78.30
9899;BME280;4988;49.238;6.698;2022-08-25T04:08:42;99142.63;;;16.40;78.10
9899;BME280;4988;49.238;6.698;2022-08-25T04:11:10;99135.13;;;16.20;78.76
9899;BME280;4988;49.238;6.698;2022-08-25T04:13:36;99134.34;;;16.05;79.73
9899;BME280;4988;49.238;6.698;2022-08-25T04:16:08;99141.97;;;15.98;80.17
9899;BME280;4988;49.238;6.698;2022-08-25T04:18:35;99141.09;;;15.85;80.79
9899;BME280;4988;49.238;6.698;2022-08-25T04:21:02;99152.31;;;15.77;80.96
9899;BME280;4988;49.238;6.698;2022-08-25T04:23:28;99144.03;;;15.67;81.52
9899;BME280;4988;49.238;6.698;2022-08-25T04:25:53;99140.41;;;15.68;80.97
9899;BME280;4988;49.238;6.698;2022-08-25T04:28:19;99140.59;;;15.65;81.52
9899;BME280;4988;49.238;6.698;2022-08-25T04:30:44;99136.50;;;15.59;81.75
9899;BME280;4988;49.238;6.698;2022-08-25T04:33:09;99131.16;;;15.59;81.93
9899;BME280;4988;49.238;6.698;2022-08-25T04:35:35;99122.31;;;15.57;82.04
9899;BME280;4988;49.238;6.698;2022-08-25T04:38:00;99125.53;;;15.50;81.85
9899;BME280;4988;49.238;6.698;2022-08-25T04:40:26;99130.25;;;15.59;81.29
9899;BME280;4988;49.238;6.698;2022-08-25T04:42:52;99130.09;;;15.75;81.35
9899;BME280;4988;49.238;6.698;2022-08-25T04:45:17;99123.59;;;15.92;79.81
9899;BME280;4988;49.238;6.698;2022-08-25T04:47:42;99128.25;;;16.03;79.81
9899;BME280;4988;49.238;6.698;2022-08-25T04:50:08;99118.69;;;16.12;79.69
9899;BME280;4988;49.238;6.698;2022-08-25T04:52:33;99116.88;;;16.25;78.40
9899;BME280;4988;49.238;6.698;2022-08-25T04:54:59;99114.72;;;16.30;77.47
9899;BME280;4988;49.238;6.698;2022-08-25T04:57:25;99115.47;;;16.32;78.08
9899;BME280;4988;49.238;6.698;2022-08-25T04:59:50;99113.88;;;16.30;78.40
9899;BME280;4988;49.238;6.698;2022-08-25T05:02:16;99104.72;;;16.32;78.35
9899;BME280;4988;49.238;6.698;2022-08-25T05:04:41;99102.88;;;16.33;77.92
9899;BME280;4988;49.238;6.698;2022-08-25T05:07:07;99099.66;;;16.40;77.92
9899;BME280;4988;49.238;6.698;2022-08-25T05:09:33;99094.06;;;16.44;77.72
9899;BME280;4988;49.238;6.698;2022-08-25T05:12:02;99098.47;;;16.45;77.80
9899;BME280;4988;49.238;6.698;2022-08-25T05:14:28;99096.22;;;16.38;78.28
9899;BME280;4988;49.238;6.698;2022-08-25T05:16:54;99099.97;;;16.49;77.46
9899;BME280;4988;49.238;6.698;2022-08-25T05:19:20;99102.22;;;16.55;77.08
9899;BME280;4988;49.238;6.698;2022-08-25T05:21:47;99100.06;;;16.60;77.18
9899;BME280;4988;49.238;6.698;2022-08-25T05:24:13;99090.38;;;16.70;76.75
9899;BME280;4988;49.238;6.698;2022-08-25T05:26:38;99085.41;;;16.77;76.73
9899;BME280;4988;49.238;6.698;2022-08-25T05:29:04;99084.19;;;16.81;76.61
9899;BME280;4988;49.238;6.698;2022-08-25T05:31:30;99084.31;;;16.80;76.66
9899;BME280;4988;49.238;6.698;2022-08-25T05:33:57;99080.44;;;16.84;76.84
9899;BME280;4988;49.238;6.698;2022-08-25T05:36:23;99086.00;;;16.94;76.50
9899;BME280;4988;49.238;6.698;2022-08-25T05:38:51;99087.06;;;17.04;76.33
9899;BME280;4988;49.238;6.698;2022-08-25T05:41:23;99087.25;;;17.14;75.77
9899;BME280;4988;49.238;6.698;2022-08-25T05:43:49;99095.16;;;17.28;75.22
9899;BME280;4988;49.238;6.698;2022-08-25T05:46:18;99096.63;;;17.32;75.25
9899;BME280;4988;49.238;6.698;2022-08-25T05:48:43;99096.06;;;17.40;75.06
9899;BME280;4988;49.238;6.698;2022-08-25T05:51:10;99098.41;;;17.45;74.31
9899;BME280;4988;49.238;6.698;2022-08-25T05:53:37;99106.94;;;17.39;74.63
9899;BME280;4988;49.238;6.698;2022-08-25T05:56:03;99106.59;;;17.19;75.20
9899;BME280;4988;49.238;6.698;2022-08-25T05:58:29;99112.13;;;17.04;76.17
9899;BME280;4988;49.238;6.698;2022-08-25T06:00:57;99108.94;;;16.86;76.45
9899;BME280;4988;49.238;6.698;2022-08-25T06:03:43;99095.75;;;16.70;77.27
9899;BME280;4988;49.238;6.698;2022-08-25T06:06:08;99087.38;;;16.62;77.31
9899;BME280;4988;49.238;6.698;2022-08-25T06:08:34;99083.72;;;16.63;77.55
9899;BME280;4988;49.238;6.698;2022-08-25T06:10:59;99090.38;;;16.70;77.44
9899;BME280;4988;49.238;6.698;2022-08-25T06:13:25;99095.72;;;16.83;76.76
9899;BME280;4988;49.238;6.698;2022-08-25T06:15:56;99085.94;;;16.95;76.42
9899;BME280;4988;49.238;6.698;2022-08-25T06:18:22;99089.19;;;17.12;76.22
9899;BME280;4988;49.238;6.698;2022-08-25T06:20:47;99087.94;;;17.29;75.87
9899;BME280;4988;49.238;6.698;2022-08-25T06:23:12;99088.16;;;17.50;75.60
9899;BME280;4988;49.238;6.698;2022-08-25T06:25:38;99092.00;;;17.70;75.29
9899;BME280;4988;49.238;6.698;2022-08-25T06:28:04;99081.31;;;17.93;75.21
9899;BME280;4988;49.238;6.698;2022-08-25T06:30:29;99084.53;;;18.09;74.47
9899;BME280;4988;49.238;6.698;2022-08-25T06:32:55;99085.91;;;18.26;74.26
9899;BME280;4988;49.238;6.698;2022-08-25T06:35:21;99080.91;;;18.44;73.29
9899;BME280;4988;49.238;6.698;2022-08-25T06:37:47;99088.34;;;18.63;72.72
9899;BME280;4988;49.238;6.698;2022-08-25T06:40:14;99090.81;;;18.78;72.32
9899;BME280;4988;49.238;6.698;2022-08-25T06:42:40;99087.63;;;18.95;71.56
9899;BME280;4988;49.238;6.698;2022-08-25T06:45:06;99083.78;;;19.09;71.43
9899;BME280;4988;49.238;6.698;2022-08-25T06:47:32;99085.06;;;19.26;70.29
9899;BME280;4988;49.238;6.698;2022-08-25T06:49:58;99081.72;;;19.45;69.93
9899;BME280;4988;49.238;6.698;2022-08-25T06:52:23;99090.09;;;19.64;68.85
9899;BME280;4988;49.238;6.698;2022-08-25T06:54:49;99090.16;;;19.85;67.57
9899;BME280;4988;49.238;6.698;2022-08-25T06:57:15;99084.53;;;19.98;66.75
9899;BME280;4988;49.238;6.698;2022-08-25T06:59:40;99088.63;;;20.13;65.91
9899;BME280;4988;49.238;6.698;2022-08-25T07:02:06;99084.09;;;20.23;65.72
9899;BME280;4988;49.238;6.698;2022-08-25T07:04:32;99097.28;;;20.38;65.74
9899;BME280;4988;49.238;6.698;2022-08-25T07:06:58;99089.41;;;20.56;65.02
9899;BME280;4988;49.238;6.698;2022-08-25T07:09:24;99086.31;;;20.70;64.60
9899;BME280;4988;49.238;6.698;2022-08-25T07:11:49;99092.94;;;20.87;64.05
9899;BME280;4988;49.238;6.698;2022-08-25T07:14:16;99093.97;;;21.06;63.86
9899;BME280;4988;49.238;6.698;2022-08-25T07:16:42;99084.19;;;21.25;63.38
9899;BME280;4988;49.238;6.698;2022-08-25T07:19:08;99091.63;;;21.42;63.01
9899;BME280;4988;49.238;6.698;2022-08-25T07:21:36;99091.53;;;21.63;62.65
9899;BME280;4988;49.238;6.698;2022-08-25T07:24:07;99089.63;;;21.83;61.82
9899;BME280;4988;49.238;6.698;2022-08-25T07:26:33;99086.75;;;22.05;61.88
9899;BME280;4988;49.238;6.698;2022-08-25T07:29:06;99083.16;;;22.24;61.20
9899;BME280;4988;49.238;6.698;2022-08-25T07:31:33;99085.81;;;22.43;60.47
9899;BME280;4988;49.238;6.698;2022-08-25T07:33:59;99086.03;;;22.60;60.39
9899;BME280;4988;49.238;6.698;2022-08-25T07:36:43;99085.22;;;22.77;59.99
9899;BME280;4988;49.238;6.698;2022-08-25T07:39:08;99081.03;;;22.93;59.57
9899;BME280;4988;49.238;6.698;2022-08-25T07:41:39;99082.63;;;23.13;59.37
9899;BME280;4988;49.238;6.698;2022-08-25T07:44:06;99084.97;;;23.26;58.67
9899;BME280;4988;49.238;6.698;2022-08-25T07:46:32;99079.84;;;23.41;58.94
9899;BME280;4988;49.238;6.698;2022-08-25T07:48:58;99075.44;;;23.58;58.44
9899;BME280;4988;49.238;6.698;2022-08-25T07:51:23;99081.41;;;23.80;57.61
9899;BME280;4988;49.238;6.698;2022-08-25T07:53:49;99077.81;;;23.98;57.71
9899;BME280;4988;49.238;6.698;2022-08-25T07:56:15;99069.63;;;24.16;57.20
9899;BME280;4988;49.238;6.698;2022-08-25T07:58:42;99056.09;;;24.32;56.40
9899;BME280;4988;49.238;6.698;2022-08-25T08:01:16;99054.81;;;24.45;56.09
9899;BME280;4988;49.238;6.698;2022-08-25T08:03:42;99057.25;;;24.56;56.17
9899;BME280;4988;49.238;6.698;2022-08-25T08:06:12;99060.91;;;24.73;56.54
9899;BME280;4988;49.238;6.698;2022-08-25T08:08:39;99057.09;;;24.92;55.59
9899;BME280;4988;49.238;6.698;2022-08-25T08:11:25;99051.69;;;25.09;55.21
9899;BME280;4988;49.238;6.698;2022-08-25T08:13:52;99050.34;;;25.29;55.45
9899;BME280;4988;49.238;6.698;2022-08-25T08:16:19;99050.41;;;25.54;54.65
9899;BME280;4988;49.238;6.698;2022-08-25T08:18:45;99051.94;;;25.73;53.86
9899;BME280;4988;49.238;6.698;2022-08-25T08:21:16;99055.69;;;25.89;53.45
9899;BME280;4988;49.238;6.698;2022-08-25T08:23:42;99044.72;;;26.05;53.13
9899;BME280;4988;49.238;6.698;2022-08-25T08:26:08;99047.31;;;26.23;52.99
9899;BME280;4988;49.238;6.698;2022-08-25T08:28:34;99049.97;;;26.40;51.91
9899;BME280;4988;49.238;6.698;2022-08-25T08:31:00;99048.56;;;26.52;51.64
9899;BME280;4988;49.238;6.698;2022-08-25T08:33:25;99051.28;;;26.60;51.31
9899;BME280;4988;49.238;6.698;2022-08-25T08:36:10;99043.88;;;26.69;51.44
9899;BME280;4988;49.238;6.698;2022-08-25T08:38:38;99051.91;;;26.79;50.85
9899;BME280;4988;49.238;6.698;2022-08-25T08:50:15;99045.50;;;27.26;49.77
9899;BME280;4988;49.238;6.698;2022-08-25T08:52:15;99055.81;;;27.39;49.31
9899;BME280;4988;49.238;6.698;2022-08-25T08:54:45;99052.22;;;27.47;48.91
9899;BME280;4988;49.238;6.698;2022-08-25T08:57:17;99040.91;;;27.50;48.84
9899;BME280;4988;49.238;6.698;2022-08-25T08:59:56;99046.97;;;27.60;48.25
9899;BME280;4988;49.238;6.698;2022-08-25T09:02:45;99048.41;;;27.71;48.19
9899;BME280;4988;49.238;6.698;2022-08-25T09:05:14;99045.13;;;27.76;48.08
9899;BME280;4988;49.238;6.698;2022-08-25T09:07:47;99041.13;;;27.87;48.12
9899;BME280;4988;49.238;6.698;2022-08-25T09:10:16;99044.22;;;27.99;47.54
9899;BME280;4988;49.238;6.698;2022-08-25T09:15:52;99050.25;;;28.17;46.77
9899;BME280;4988;49.238;6.698;2022-08-25T09:24:09;99045.91;;;28.38;45.42
9899;BME280;4988;49.238;6.698;2022-08-25T09:29:30;99051.66;;;28.43;45.20
9899;BME280;4988;49.238;6.698;2022-08-25T09:31:59;99042.88;;;28.48;45.73
9899;BME280;4988;49.238;6.698;2022-08-25T09:34:30;99044.41;;;28.50;45.53
9899;BME280;4988;49.238;6.698;2022-08-25T09:36:57;99041.09;;;28.40;45.69
9899;BME280;4988;49.238;6.698;2022-08-25T09:39:23;99037.53;;;28.39;45.31
9899;BME280;4988;49.238;6.698;2022-08-25T09:41:54;99038.16;;;28.41;45.33
9899;BME280;4988;49.238;6.698;2022-08-25T09:44:43;99032.78;;;28.48;45.05
9899;BME280;4988;49.238;6.698;2022-08-25T09:47:22;99022.88;;;28.47;44.84
9899;BME280;4988;49.238;6.698;2022-08-25T09:49:55;99012.19;;;28.52;45.38
9899;BME280;4988;49.238;6.698;2022-08-25T09:54:50;99011.63;;;28.72;44.94
9899;BME280;4988;49.238;6.698;2022-08-25T10:00:13;99001.78;;;28.93;44.31
9899;BME280;4988;49.238;6.698;2022-08-25T10:02:40;98995.88;;;28.96;43.91
9899;BME280;4988;49.238;6.698;2022-08-25T10:07:55;98990.56;;;29.09;43.20
9899;BME280;4988;49.238;6.698;2022-08-25T10:13:18;98979.59;;;29.09;43.02
9899;BME280;4988;49.238;6.698;2022-08-25T10:15:45;98985.59;;;29.19;42.49
9899;BME280;4988;49.238;6.698;2022-08-25T10:20:39;98980.97;;;29.42;41.20
9899;BME280;4988;49.238;6.698;2022-08-25T10:23:11;98985.88;;;29.46;42.20
9899;BME280;4988;49.238;6.698;2022-08-25T10:25:41;98986.00;;;29.60;41.98
9899;BME280;4988;49.238;6.698;2022-08-25T10:28:17;98985.09;;;29.52;40.79
9899;BME280;4988;49.238;6.698;2022-08-25T10:31:22;98977.84;;;29.45;41.29
9899;BME280;4988;49.238;6.698;2022-08-25T10:34:31;98970.19;;;29.40;41.07
9899;BME280;4988;49.238;6.698;2022-08-25T10:37:09;98980.47;;;29.53;41.33
9899;BME280;4988;49.238;6.698;2022-08-25T10:39:45;98975.34;;;29.72;41.34
9899;BME280;4988;49.238;6.698;2022-08-25T10:42:33;98968.38;;;29.76;40.35
9899;BME280;4988;49.238;6.698;2022-08-25T10:45:14;98966.75;;;29.81;39.64
9899;BME280;4988;49.238;6.698;2022-08-25T10:56:40;98940.03;;;29.90;40.65
9899;BME280;4988;49.238;6.698;2022-08-25T10:59:17;98939.16;;;29.90;40.59
9899;BME280;4988;49.238;6.698;2022-08-25T11:04:47;98935.50;;;30.11;39.59
9899;BME280;4988;49.238;6.698;2022-08-25T11:07:25;98927.50;;;30.16;38.61
9899;BME280;4988;49.238;6.698;2022-08-25T11:09:54;98926.25;;;30.19;38.96
9899;BME280;4988;49.238;6.698;2022-08-25T11:12:29;98927.94;;;30.20;39.31
9899;BME280;4988;49.238;6.698;2022-08-25T11:15:02;98918.66;;;30.21;39.62
9899;BME280;4988;49.238;6.698;2022-08-25T11:20:15;98907.84;;;30.12;39.68
9899;BME280;4988;49.238;6.698;2022-08-25T11:22:46;98908.66;;;30.13;39.76
9899;BME280;4988;49.238;6.698;2022-08-25T11:25:18;98913.78;;;30.23;38.72
9899;BME280;4988;49.238;6.698;2022-08-25T11:27:54;98901.91;;;30.15;38.73
9899;BME280;4988;49.238;6.698;2022-08-25T11:30:21;98904.03;;;30.13;39.59
9899;BME280;4988;49.238;6.698;2022-08-25T11:32:49;98897.72;;;30.20;39.48
9899;BME280;4988;49.238;6.698;2022-08-25T11:35:18;98902.88;;;30.36;39.55
9899;BME280;4988;49.238;6.698;2022-08-25T11:40:57;98899.91;;;30.38;39.08
9899;BME280;4988;49.238;6.698;2022-08-25T11:43:52;98902.88;;;30.36;39.34
9899;BME280;4988;49.238;6.698;2022-08-25T11:52:05;98902.94;;;30.50;38.78
9899;BME280;4988;49.238;6.698;2022-08-25T11:54:50;98894.53;;;30.58;38.82
9899;BME280;4988;49.238;6.698;2022-08-25T12:08:03;98884.69;;;30.35;37.23
9899;BME280;4988;49.238;6.698;2022-08-25T12:10:55;98889.34;;;30.41;38.47
9899;BME280;4988;49.238;6.698;2022-08-25T12:13:48;98883.25;;;30.39;38.18
9899;BME280;4988;49.238;6.698;2022-08-25T12:16:37;98867.81;;;30.38;37.83
9899;BME280;4988;49.238;6.698;2022-08-25T12:27:32;98862.44;;;30.92;36.62
9899;BME280;4988;49.238;6.698;2022-08-25T12:35:26;98860.94;;;30.89;36.81
9899;BME280;4988;49.238;6.698;2022-08-25T12:37:57;98861.78;;;30.83;36.43
9899;BME280;4988;49.238;6.698;2022-08-25T12:40:34;98850.59;;;30.78;36.72
9899;BME280;4988;49.238;6.698;2022-08-25T12:43:03;98845.31;;;30.76;36.78
9899;BME280;4988;49.238;6.698;2022-08-25T12:45:39;98858.41;;;30.88;36.22
9899;BME280;4988;49.238;6.698;2022-08-25T12:51:02;98847.44;;;30.88;35.88
9899;BME280;4988;49.238;6.698;2022-08-25T12:53:43;98847.44;;;30.81;36.10
9899;BME280;4988;49.238;6.698;2022-08-25T13:01:42;98851.44;;;31.05;35.67
9899;BME280;4988;49.238;6.698;2022-08-25T13:12:15;98844.06;;;31.26;35.41
9899;BME280;4988;49.238;6.698;2022-08-25T13:14:42;98836.66;;;31.20;35.63
9899;BME280;4988;49.238;6.698;2022-08-25T13:17:08;98827.59;;;31.19;35.29
9899;BME280;4988;49.238;6.698;2022-08-25T13:19:35;98820.63;;;31.17;35.51
9899;BME280;4988;49.238;6.698;2022-08-25T13:22:08;98817.00;;;31.16;35.57
9899;BME280;4988;49.238;6.698;2022-08-25T13:24:40;98823.97;;;31.19;36.25
9899;BME280;4988;49.238;6.698;2022-08-25T13:27:09;98821.25;;;31.25;35.68
9899;BME280;4988;49.238;6.698;2022-08-25T13:29:55;98817.00;;;31.23;34.77
9899;BME280;4988;49.238;6.698;2022-08-25T13:32:29;98815.91;;;31.37;34.94
9899;BME280;4988;49.238;6.698;2022-08-25T13:35:15;98802.78;;;31.39;35.25
9899;BME280;4988;49.238;6.698;2022-08-25T13:37:41;98809.13;;;31.40;35.24
9899;BME280;4988;49.238;6.698;2022-08-25T13:42:37;98804.00;;;31.64;34.55
9899;BME280;4988;49.238;6.698;2022-08-25T13:45:04;98804.00;;;31.64;34.24
9899;BME280;4988;49.238;6.698;2022-08-25T13:47:38;98801.72;;;31.67;33.28
9899;BME280;4988;49.238;6.698;2022-08-25T13:52:53;98804.66;;;31.66;34.48
9899;BME280;4988;49.238;6.698;2022-08-25T13:55:40;98803.38;;;31.68;34.25
9899;BME280;4988;49.238;6.698;2022-08-25T13:58:13;98800.84;;;31.73;33.84
9899;BME280;4988;49.238;6.698;2022-08-25T14:00:45;98796.41;;;31.72;34.36
9899;BME280;4988;49.238;6.698;2022-08-25T14:03:32;98793.63;;;31.72;34.20
9899;BME280;4988;49.238;6.698;2022-08-25T14:06:07;98786.22;;;31.80;33.69
9899;BME280;4988;49.238;6.698;2022-08-25T14:08:37;98797.19;;;31.86;34.14
9899;BME280;4988;49.238;6.698;2022-08-25T14:11:14;98771.34;;;31.81;33.82
9899;BME280;4988;49.238;6.698;2022-08-25T14:13:42;98779.00;;;31.79;34.07
9899;BME280;4988;49.238;6.698;2022-08-25T14:16:14;98779.84;;;31.79;34.50
9899;BME280;4988;49.238;6.698;2022-08-25T14:18:49;98779.25;;;31.70;33.42
9899;BME280;4988;49.238;6.698;2022-08-25T14:21:18;98767.59;;;31.68;33.94
9899;BME280;4988;49.238;6.698;2022-08-25T14:23:44;98773.09;;;31.68;34.57
9899;BME280;4988;49.238;6.698;2022-08-25T14:26:10;98767.59;;;31.68;34.20
9899;BME280;4988;49.238;6.698;2022-08-25T14:28:37;98772.03;;;31.76;34.14
9899;BME280;4988;49.238;6.698;2022-08-25T14:33:53;98757.59;;;31.81;33.63
9899;BME280;4988;49.238;6.698;2022-08-25T14:36:19;98771.13;;;31.89;33.92
9899;BME280;4988;49.238;6.698;2022-08-25T14:38:45;98763.91;;;31.95;33.99
9899;BME280;4988;49.238;6.698;2022-08-25T14:41:10;98773.84;;;31.96;33.97
9899;BME280;4988;49.238;6.698;2022-08-25T14:43:36;98765.38;;;31.97;34.05
9899;BME280;4988;49.238;6.698;2022-08-25T14:46:08;98769.13;;;32.03;33.65
9899;BME280;4988;49.238;6.698;2022-08-25T14:48:41;98769.13;;;32.10;33.16
9899;BME280;4988;49.238;6.698;2022-08-25T14:51:09;98763.38;;;32.11;33.46
9899;BME280;4988;49.238;6.698;2022-08-25T14:53:35;98771.69;;;32.04;33.73
9899;BME280;4988;49.238;6.698;2022-08-25T14:56:01;98767.31;;;31.90;34.05
9899;BME280;4988;49.238;6.698;2022-08-25T14:58:26;98761.78;;;31.90;34.58
9899;BME280;4988;49.238;6.698;2022-08-25T15:00:52;98765.59;;;31.89;34.12
9899;BME280;4988;49.238;6.698;2022-08-25T15:03:28;98764.56;;;31.90;34.75
9899;BME280;4988;49.238;6.698;2022-08-25T15:05:54;98753.06;;;32.00;34.12
9899;BME280;4988;49.238;6.698;2022-08-25T15:08:19;98757.09;;;31.97;34.06
9899;BME280;4988;49.238;6.698;2022-08-25T15:11:03;98750.25;;;32.06;33.78
9899;BME280;4988;49.238;6.698;2022-08-25T15:13:29;98741.13;;;32.13;33.68
9899;BME280;4988;49.238;6.698;2022-08-25T15:15:54;98741.06;;;32.26;33.38
9899;BME280;4988;49.238;6.698;2022-08-25T15:18:20;98749.06;;;32.34;33.66
9899;BME280;4988;49.238;6.698;2022-08-25T15:20:46;98753.91;;;32.39;33.70